Time;durP1;ratioP1;P1;durP2;ratioP2;P2;SDS_P1;SDS_P2;PMS_P1;PMS_P2;Temp;Humidity;BMP_temperature;BMP_pressure;BME280_temperature;BME280_humidity;BME280_pressure;Samples;Min_cycle;Max_cycle;Signal;HPM_P1;HPM_P2
2021/10/02 00:36:28;;;;;;;26.50;15.43;;;;;13.00;100781.00;;;;10448881;28;20280;-80
2021/10/02 00:46:52;;;;;;;28.93;14.27;;;;;13.20;100783.00;;;;10469897;28;20232;-85
2021/10/02 00:51:54;;;;;;;20.33;13.87;;;;;13.20;100793.00;;;;10477469;28;20201;-83
2021/10/02 00:56:56;;;;;;;22.17;13.10;;;;;13.20;100788.00;;;;10496807;28;20249;-81
2021/10/02 01:02:11;;;;;;;18.10;12.60;;;;;13.20;100789.00;;;;10483182;28;20204;-81
2021/10/02 01:07:50;;;;;;;21.50;13.00;;;;;13.10;100779.00;;;;10449670;28;20669;-81
2021/10/02 01:12:52;;;;;;;21.03;12.43;;;;;13.00;100769.00;;;;10440728;28;20193;-82
2021/10/02 01:18:19;;;;;;;23.53;13.03;;;;;13.00;100766.00;;;;10477475;28;20189;-82
2021/10/02 01:23:39;;;;;;;27.97;13.30;;;;;13.00;100757.00;;;;10439990;28;20201;-81
2021/10/02 01:28:43;;;;;;;20.60;13.47;;;;;12.90;100746.00;;;;10465137;28;20224;-81
2021/10/02 01:34:11;;;;;;;24.57;13.13;;;;;12.80;100737.00;;;;10475255;28;20198;-80
2021/10/02 01:50:25;;;;;;;21.17;13.00;;;;;12.80;100727.00;;;;10464673;28;20197;-81
2021/10/02 01:55:29;;;;;;;26.40;13.13;;;;;12.80;100721.00;;;;10457718;28;20189;-82
2021/10/02 02:00:32;;;;;;;18.10;11.53;;;;;12.90;100725.00;;;;10463331;28;20244;-81
2021/10/02 02:05:35;;;;;;;24.00;11.97;;;;;13.00;100716.00;;;;10437469;28;20205;-81
2021/10/02 02:10:42;;;;;;;18.83;11.67;;;;;12.90;100722.00;;;;10469183;28;20247;-82
2021/10/02 02:15:46;;;;;;;23.27;10.57;;;;;12.70;100708.00;;;;10456329;28;20182;-81
2021/10/02 02:20:55;;;;;;;16.93;11.20;;;;;12.60;100725.00;;;;10461634;28;20211;-81
2021/10/02 02:26:04;;;;;;;17.07;10.40;;;;;12.50;100719.00;;;;10459897;28;20210;-81
2021/10/02 02:31:06;;;;;;;17.60;9.10;;;;;12.40;100718.00;;;;10473478;28;20244;-81
2021/10/02 02:36:08;;;;;;;16.17;8.37;;;;;12.30;100706.00;;;;10433743;28;20204;-81
2021/10/02 02:41:11;;;;;;;19.40;9.40;;;;;12.20;100698.00;;;;10460401;28;20623;-81
2021/10/02 02:46:17;;;;;;;18.07;9.83;;;;;12.20;100681.00;;;;10452669;28;20255;-81
2021/10/02 02:51:26;;;;;;;20.93;9.63;;;;;12.10;100678.00;;;;10485773;28;20208;-81
2021/10/02 02:56:59;;;;;;;15.63;8.97;;;;;12.00;100672.00;;;;10458063;28;20209;-81
2021/10/02 03:02:04;;;;;;;17.73;10.70;;;;;11.90;100695.00;;;;10467022;28;20664;-82
2021/10/02 03:07:10;;;;;;;26.60;11.13;;;;;11.90;100699.00;;;;10485516;28;20240;-81
2021/10/02 03:12:13;;;;;;;20.23;12.00;;;;;12.00;100686.00;;;;10489995;28;20267;-81
2021/10/02 03:17:17;;;;;;;16.53;11.80;;;;;12.00;100691.00;;;;10461979;28;20198;-81
2021/10/02 03:22:20;;;;;;;28.83;14.13;;;;;12.00;100697.00;;;;10459389;28;20196;-81
2021/10/02 03:27:25;;;;;;;21.83;12.07;;;;;12.00;100686.00;;;;10470402;28;20260;-81
2021/10/02 03:32:27;;;;;;;22.47;12.23;;;;;12.00;100691.00;;;;10483973;28;20239;-81
2021/10/02 03:37:29;;;;;;;25.87;12.30;;;;;11.90;100679.00;;;;10460052;28;20194;-81
2021/10/02 03:42:42;;;;;;;26.83;14.07;;;;;11.80;100687.00;;;;10470076;28;20221;-81
2021/10/02 03:47:44;;;;;;;22.63;12.80;;;;;11.70;100671.00;;;;10461027;28;20258;-81
2021/10/02 03:52:46;;;;;;;30.17;13.13;;;;;11.70;100665.00;;;;10492361;28;20202;-81
2021/10/02 03:57:48;;;;;;;25.03;14.40;;;;;11.70;100669.00;;;;10489712;28;20239;-81
2021/10/02 04:02:50;;;;;;;21.67;13.37;;;;;11.60;100681.00;;;;10460474;28;20196;-82
2021/10/02 04:07:52;;;;;;;23.50;14.53;;;;;11.60;100676.00;;;;10493202;28;20212;-82
2021/10/02 04:12:54;;;;;;;32.07;14.60;;;;;11.60;100676.00;;;;10507801;28;20308;-82
2021/10/02 04:17:56;;;;;;;27.03;14.67;;;;;11.60;100663.00;;;;10433556;28;20907;-82
2021/10/02 04:22:58;;;;;;;24.17;14.93;;;;;11.60;100678.00;;;;10467646;28;20227;-82
2021/10/02 04:28:00;;;;;;;32.03;17.23;;;;;11.60;100672.00;;;;10474113;28;20201;-82
2021/10/02 04:33:02;;;;;;;30.13;17.50;;;;;11.60;100666.00;;;;10460408;28;20189;-83
2021/10/02 04:38:04;;;;;;;26.53;16.40;;;;;11.60;100672.00;;;;10441700;28;20186;-82
2021/10/02 04:43:06;;;;;;;29.77;16.40;;;;;11.60;100644.00;;;;10458343;28;20737;-83
2021/10/02 04:48:08;;;;;;;30.23;16.73;;;;;11.60;100650.00;;;;10488605;28;20590;-82
2021/10/02 04:53:10;;;;;;;32.50;15.47;;;;;11.50;100649.00;;;;10475555;28;20614;-82
2021/10/02 04:58:12;;;;;;;30.70;15.37;;;;;11.40;100656.00;;;;10474375;28;20618;-82
2021/10/02 05:03:14;;;;;;;28.90;15.37;;;;;11.30;100648.00;;;;10488605;28;20190;-82
2021/10/02 05:08:16;;;;;;;33.57;16.07;;;;;11.30;100655.00;;;;10473891;28;20236;-82
2021/10/02 05:13:18;;;;;;;30.73;17.80;;;;;11.20;100652.00;;;;10470128;28;20222;-82
2021/10/02 05:18:20;;;;;;;33.53;18.83;;;;;11.20;100659.00;;;;10455063;28;20194;-82
2021/10/02 05:23:23;;;;;;;30.17;17.97;;;;;11.10;100645.00;;;;10481562;28;20202;-82
2021/10/02 05:28:24;;;;;;;38.20;18.87;;;;;11.00;100647.00;;;;10450867;28;20202;-81
2021/10/02 05:33:26;;;;;;;31.23;17.30;;;;;11.00;100656.00;;;;10453319;28;20194;-81
2021/10/02 05:38:28;;;;;;;34.03;18.43;;;;;10.90;100655.00;;;;10488841;28;20208;-80
2021/10/02 05:43:30;;;;;;;43.23;19.83;;;;;10.90;100661.00;;;;10454470;28;20229;-81
2021/10/02 05:48:32;;;;;;;39.97;20.30;;;;;11.00;100660.00;;;;10443944;28;20256;-80
2021/10/02 05:53:34;;;;;;;34.90;19.33;;;;;11.10;100645.00;;;;10478723;28;20256;-82
2021/10/02 05:58:36;;;;;;;45.27;20.77;;;;;11.10;100650.00;;;;10445636;28;20186;-81
2021/10/02 06:03:38;;;;;;;41.30;20.37;;;;;11.20;100649.00;;;;10472133;28;20190;-81
2021/10/02 06:08:41;;;;;;;36.50;20.60;;;;;11.40;100670.00;;;;10474217;28;20202;-81
2021/10/02 06:13:47;;;;;;;41.60;19.77;;;;;11.60;100671.00;;;;10477180;28;20661;-82
2021/10/02 06:18:49;;;;;;;40.13;21.33;;;;;11.70;100672.00;;;;10431751;28;20186;-81
2021/10/02 06:23:51;;;;;;;38.87;20.30;;;;;11.90;100679.00;;;;10486319;28;20594;-81
2021/10/02 06:28:52;;;;;;;41.23;19.13;;;;;12.00;100677.00;;;;10461022;28;20210;-81
2021/10/02 06:33:54;;;;;;;37.70;21.63;;;;;12.20;100623.00;;;;10471845;28;20194;-81
2021/10/02 06:38:57;;;;;;;40.73;20.57;;;;;12.30;100635.00;;;;10457454;28;20733;-80
2021/10/02 06:43:59;;;;;;;39.10;20.90;;;;;12.40;100635.00;;;;10458714;28;20251;-79
2021/10/02 06:49:04;;;;;;;44.53;24.00;;;;;12.70;100621.00;;;;10465904;28;20218;-80
2021/10/02 06:54:06;;;;;;;45.60;23.67;;;;;13.00;100625.00;;;;10469657;28;20197;-80
2021/10/02 06:59:07;;;;;;;48.30;26.03;;;;;13.20;100625.00;;;;10469461;28;20193;-80
2021/10/02 07:04:09;;;;;;;50.17;24.00;;;;;13.30;100622.00;;;;10452815;28;20194;-80
2021/10/02 07:09:30;;;;;;;38.60;21.50;;;;;13.40;100612.00;;;;10484043;28;20232;-80
2021/10/02 07:14:35;;;;;;;31.93;19.47;;;;;13.60;100609.00;;;;10452332;28;20201;-79
2021/10/02 07:19:37;;;;;;;30.37;17.93;;;;;13.90;100615.00;;;;10440985;28;20696;-79
2021/10/02 07:24:39;;;;;;;28.13;17.90;;;;;14.10;100618.00;;;;10467262;28;20564;-79
2021/10/02 07:29:41;;;;;;;28.00;16.93;;;;;14.10;100612.00;;;;10483753;28;20208;-80
2021/10/02 07:34:43;;;;;;;27.13;16.40;;;;;14.10;100603.00;;;;10454856;28;20189;-80
2021/10/02 07:39:45;;;;;;;21.10;14.57;;;;;14.30;100603.00;;;;10483165;28;20217;-79
2021/10/02 07:44:52;;;;;;;26.70;15.73;;;;;14.60;100587.00;;;;10468109;28;20197;-80
2021/10/02 07:49:55;;;;;;;31.07;15.03;;;;;14.80;100593.00;;;;10444300;28;20248;-80
2021/10/02 07:54:58;;;;;;;21.90;12.90;;;;;14.90;100567.00;;;;10466529;28;20194;-79
2021/10/02 08:00:00;;;;;;;21.53;12.20;;;;;15.00;100554.00;;;;10477911;28;20190;-79
2021/10/02 08:05:13;;;;;;;19.23;11.47;;;;;14.90;100537.00;;;;10470023;28;20201;-79
2021/10/02 08:10:20;;;;;;;19.60;9.30;;;;;14.90;100536.00;;;;10449257;28;20220;-79
2021/10/02 08:15:22;;;;;;;15.47;8.70;;;;;15.00;100525.00;;;;10477410;28;20293;-79
2021/10/02 08:20:24;;;;;;;15.37;8.50;;;;;15.10;100508.00;;;;10472985;28;20186;-79
2021/10/02 08:25:26;;;;;;;15.90;8.60;;;;;15.50;100520.00;;;;10455784;28;20699;-81
2021/10/02 08:30:28;;;;;;;13.50;7.43;;;;;16.00;100514.00;;;;10492201;28;20214;-81
2021/10/02 08:35:30;;;;;;;10.90;6.60;;;;;16.50;100512.00;;;;10449154;28;20261;-81
2021/10/02 08:40:33;;;;;;;8.40;6.22;;;;;17.50;100516.00;;;;10465113;28;20221;-81
2021/10/02 08:45:35;;;;;;;9.18;6.05;;;;;18.10;100513.00;;;;10454918;28;20197;-80
2021/10/02 08:50:40;;;;;;;9.55;4.45;;;;;18.60;100508.00;;;;10458030;28;20659;-79
2021/10/02 08:55:44;;;;;;;10.98;5.00;;;;;18.30;100505.00;;;;10434503;28;20225;-79
2021/10/02 09:00:46;;;;;;;8.85;4.20;;;;;18.10;100505.00;;;;10468048;28;20193;-79
2021/10/02 09:05:48;;;;;;;5.90;3.58;;;;;17.80;100494.00;;;;10489993;28;20268;-79
2021/10/02 09:10:50;;;;;;;6.10;3.30;;;;;17.50;100493.00;;;;10462318;28;20221;-79
2021/10/02 09:15:52;;;;;;;12.15;3.80;;;;;17.50;100488.00;;;;10484385;28;20209;-79
2021/10/02 09:21:07;;;;;;;8.55;3.60;;;;;17.50;100476.00;;;;10451487;28;20185;-79
2021/10/02 09:26:09;;;;;;;7.28;3.10;;;;;17.60;100455.00;;;;10458527;28;20213;-79
2021/10/02 09:31:15;;;;;;;8.65;3.20;;;;;17.80;100443.00;;;;10496287;28;20200;-78
2021/10/02 09:36:19;;;;;;;6.28;2.65;;;;;17.90;100418.00;;;;10488900;28;20522;-79
2021/10/02 09:41:22;;;;;;;6.93;2.83;;;;;18.30;100416.00;;;;10469370;28;20217;-78
2021/10/02 09:46:35;;;;;;;6.20;2.53;;;;;18.70;100415.00;;;;10468946;28;20240;-78
2021/10/02 09:51:40;;;;;;;5.28;2.50;;;;;18.70;100419.00;;;;10456718;28;20201;-78
2021/10/02 09:57:14;;;;;;;5.63;2.63;;;;;19.10;100412.00;;;;10495078;28;20228;-78
2021/10/02 10:02:19;;;;;;;4.78;2.55;;;;;18.80;100403.00;;;;10496956;28;20608;-78
2021/10/02 10:07:23;;;;;;;7.07;2.20;;;;;18.60;100395.00;;;;10481699;28;20215;-78
2021/10/02 10:12:25;;;;;;;5.95;2.20;;;;;18.30;100382.00;;;;10497678;28;20683;-78
2021/10/02 10:17:30;;;;;;;2.75;1.40;;;;;19.00;100374.00;;;;10508665;28;20190;-78
2021/10/02 10:22:32;;;;;;;4.65;1.70;;;;;18.50;100382.00;;;;10424682;28;20256;-78
2021/10/02 10:27:34;;;;;;;3.25;1.30;;;;;18.50;100368.00;;;;10477684;28;20247;-78
2021/10/02 10:32:38;;;;;;;6.60;1.50;;;;;18.70;100355.00;;;;10451999;28;20292;-77
2021/10/02 10:37:40;;;;;;;4.22;1.60;;;;;18.90;100346.00;;;;10488710;28;20543;-77
2021/10/02 10:42:42;;;;;;;3.30;1.40;;;;;18.80;100343.00;;;;10436830;28;20505;-77
2021/10/02 10:47:49;;;;;;;3.03;1.50;;;;;18.50;100337.00;;;;10438568;28;20199;-77
2021/10/02 10:52:51;;;;;;;3.25;1.30;;;;;18.50;100320.00;;;;10452065;28;20202;-77
2021/10/02 10:57:58;;;;;;;2.38;1.33;;;;;18.90;100299.00;;;;10468269;28;20224;-78
2021/10/02 11:03:07;;;;;;;4.55;1.65;;;;;19.20;100301.00;;;;10437655;28;20206;-77
2021/10/02 11:08:16;;;;;;;4.57;1.65;;;;;20.30;100276.00;;;;10478762;28;20205;-77
2021/10/02 11:13:31;;;;;;;2.42;1.30;;;;;21.00;100284.00;;;;10472628;28;20198;-77
2021/10/02 11:18:45;;;;;;;4.82;1.65;;;;;20.60;100279.00;;;;10471124;28;20743;-77
2021/10/02 11:24:08;;;;;;;2.75;1.73;;;;;20.00;100267.00;;;;10496940;28;20190;-78
2021/10/02 11:29:21;;;;;;;3.03;1.73;;;;;19.30;100247.00;;;;10461768;28;20194;-77
2021/10/02 11:34:23;;;;;;;4.65;1.48;;;;;18.90;100232.00;;;;10481292;28;20288;-77
2021/10/02 11:39:25;;;;;;;3.08;1.58;;;;;18.70;100226.00;;;;10433739;28;20249;-78
2021/10/02 11:44:36;;;;;;;4.13;1.40;;;;;19.30;100214.00;;;;10479834;28;20210;-77
2021/10/02 11:49:38;;;;;;;2.15;1.17;;;;;19.50;100205.00;;;;10463787;28;20754;-77
2021/10/02 11:54:41;;;;;;;5.90;1.73;;;;;19.20;100200.00;;;;10504270;28;20886;-77
2021/10/02 11:59:46;;;;;;;1.83;1.27;;;;;19.20;100201.00;;;;10464128;28;20199;-78
2021/10/02 12:04:52;;;;;;;3.15;1.40;;;;;19.60;100184.00;;;;10478297;28;20196;-78
2021/10/02 12:09:55;;;;;;;3.03;1.30;;;;;19.60;100179.00;;;;10459020;28;20233;-77
2021/10/02 12:14:57;;;;;;;2.47;1.10;;;;;19.30;100170.00;;;;10494364;28;20190;-77
2021/10/02 12:20:00;;;;;;;4.85;1.30;;;;;18.90;100150.00;;;;10460887;28;20197;-77
2021/10/02 12:25:02;;;;;;;6.18;1.10;;;;;18.80;100144.00;;;;10499915;28;20937;-78
2021/10/02 12:30:05;;;;;;;3.42;1.65;;;;;18.90;100126.00;;;;10492469;28;20232;-77
2021/10/02 12:35:08;;;;;;;2.15;1.10;;;;;18.90;100120.00;;;;10478212;28;20194;-77
2021/10/02 12:40:12;;;;;;;4.15;1.50;;;;;19.00;100114.00;;;;10500377;28;20222;-78
2021/10/02 12:45:17;;;;;;;2.00;1.20;;;;;18.90;100100.00;;;;10472292;28;20221;-77
2021/10/02 12:50:25;;;;;;;5.38;1.33;;;;;19.30;100091.00;;;;10541041;28;20217;-77
2021/10/02 12:55:27;;;;;;;5.60;1.30;;;;;20.00;100055.00;;;;10484431;28;20229;-78
2021/10/02 13:00:35;;;;;;;4.15;1.25;;;;;20.40;100036.00;;;;10502764;28;20193;-77
2021/10/02 13:05:37;;;;;;;4.35;1.20;;;;;20.30;100035.00;;;;10509918;28;20835;-78
2021/10/02 13:10:40;;;;;;;3.67;1.45;;;;;20.00;100035.00;;;;10544572;28;20209;-78
2021/10/02 13:15:55;;;;;;;3.75;1.40;;;;;19.70;100015.00;;;;10509981;28;20201;-78
2021/10/02 13:21:06;;;;;;;5.53;1.33;;;;;19.40;99998.00;;;;10489556;28;20256;-78
2021/10/02 13:26:12;;;;;;;5.32;1.30;;;;;19.10;99992.00;;;;10453330;28;20245;-77
2021/10/02 13:31:14;;;;;;;5.35;1.63;;;;;18.70;99987.00;;;;10468980;28;20202;-78
2021/10/02 13:36:26;;;;;;;6.45;1.63;;;;;18.60;99972.00;;;;10458778;28;20555;-78
2021/10/02 13:41:30;;;;;;;3.78;2.08;;;;;18.80;99965.00;;;;10497591;28;20264;-78
2021/10/02 13:46:35;;;;;;;3.50;1.30;;;;;18.90;99957.00;;;;10502388;28;20254;-78
2021/10/02 13:51:38;;;;;;;8.07;1.50;;;;;19.10;99948.00;;;;10447664;28;20210;-78
2021/10/02 13:56:44;;;;;;;3.42;1.40;;;;;19.20;99955.00;;;;10480840;28;20181;-78
2021/10/02 14:01:46;;;;;;;5.65;1.77;;;;;19.30;99954.00;;;;10415502;28;20285;-78
2021/10/02 14:06:48;;;;;;;5.00;1.70;;;;;19.40;99926.00;;;;10443547;28;20205;-78
2021/10/02 14:11:51;;;;;;;2.63;1.00;;;;;19.10;99882.00;;;;10463922;28;20202;-78
2021/10/02 14:16:54;;;;;;;5.53;1.67;;;;;18.60;99886.00;;;;10415730;28;20213;-77
2021/10/02 14:21:56;;;;;;;6.68;1.77;;;;;18.50;99868.00;;;;10432758;28;20220;-78
2021/10/02 14:26:59;;;;;;;3.95;1.63;;;;;18.30;99842.00;;;;10464797;28;20213;-79
2021/10/02 14:32:00;;;;;;;6.78;2.15;;;;;18.00;99832.00;;;;10465806;28;20768;-79
2021/10/02 14:37:04;;;;;;;4.70;1.48;;;;;17.70;99835.00;;;;10445576;28;20281;-77
2021/10/02 14:42:06;;;;;;;4.82;1.52;;;;;17.70;99826.00;;;;10468566;28;20217;-78
2021/10/02 14:47:08;;;;;;;3.47;1.42;;;;;17.40;99788.00;;;;10441056;28;20265;-78
2021/10/02 14:52:10;;;;;;;3.35;1.52;;;;;17.30;99785.00;;;;10441837;28;20217;-78
2021/10/02 14:57:14;;;;;;;5.93;2.00;;;;;17.20;99774.00;;;;10454985;28;20201;-78
2021/10/02 15:02:16;;;;;;;3.85;1.50;;;;;17.10;99771.00;;;;10465733;28;20233;-78
2021/10/02 15:07:21;;;;;;;4.57;1.77;;;;;17.00;99759.00;;;;10459151;28;20214;-77
2021/10/02 15:12:24;;;;;;;5.55;1.35;;;;;17.20;99738.00;;;;10478809;28;20217;-79
2021/10/02 15:17:27;;;;;;;3.75;1.50;;;;;17.20;99687.00;;;;10473456;28;20190;-78
2021/10/02 15:22:32;;;;;;;6.45;1.73;;;;;17.00;99657.00;;;;10494548;28;20280;-79
2021/10/02 15:27:41;;;;;;;3.10;1.38;;;;;16.90;99654.00;;;;10450111;28;20221;-77
2021/10/02 15:32:44;;;;;;;4.03;1.60;;;;;16.70;99638.00;;;;10487610;28;20224;-79
2021/10/02 15:37:46;;;;;;;4.15;1.55;;;;;16.50;99629.00;;;;10487455;28;20929;-78
2021/10/02 15:42:52;;;;;;;5.22;2.20;;;;;16.30;99615.00;;;;10477676;28;20804;-79
2021/10/02 15:47:58;;;;;;;2.85;1.63;;;;;16.20;99616.00;;;;10461074;28;20213;-78
2021/10/02 15:52:59;;;;;;;5.53;1.45;;;;;16.20;99599.00;;;;10435600;28;20202;-79
2021/10/02 15:58:06;;;;;;;6.45;1.85;;;;;16.30;99586.00;;;;10487057;28;20794;-78
2021/10/02 16:03:26;;;;;;;3.50;1.80;;;;;16.20;99577.00;;;;10454564;28;20196;-79
2021/10/02 16:08:29;;;;;;;2.72;1.52;;;;;16.10;99590.00;;;;10462203;28;20213;-78
2021/10/02 16:13:38;;;;;;;7.38;1.70;;;;;16.00;99568.00;;;;10485995;28;20220;-79
2021/10/02 16:18:40;;;;;;;5.38;1.75;;;;;15.90;99570.00;;;;10469810;28;20209;-80
2021/10/02 16:23:42;;;;;;;5.35;2.00;;;;;15.80;99575.00;;;;10484991;28;20186;-78
2021/10/02 16:28:48;;;;;;;6.90;2.03;;;;;15.70;99560.00;;;;10467656;28;20198;-79
2021/10/02 16:33:55;;;;;;;4.10;1.73;;;;;15.70;99562.00;;;;10488620;28;20268;-80
2021/10/02 16:39:01;;;;;;;6.15;1.70;;;;;15.60;99546.00;;;;10487881;28;20209;-80
2021/10/02 16:44:05;;;;;;;5.03;1.73;;;;;15.60;99526.00;;;;10480666;28;20209;-82
2021/10/02 16:49:07;;;;;;;5.77;1.80;;;;;15.50;99511.00;;;;10461414;28;20217;-81
2021/10/02 16:54:09;;;;;;;3.13;1.83;;;;;15.40;99484.00;;;;10469274;28;20200;-81
2021/10/02 16:59:12;;;;;;;5.63;1.90;;;;;15.30;99456.00;;;;10466561;28;20193;-81
2021/10/02 17:04:14;;;;;;;3.30;1.50;;;;;15.30;99443.00;;;;10452505;28;20271;-82
2021/10/02 17:09:25;;;;;;;5.10;1.80;;;;;15.20;99431.00;;;;10447317;28;21043;-82
2021/10/02 17:14:27;;;;;;;2.90;2.10;;;;;15.20;99414.00;;;;10447204;28;20205;-80
2021/10/02 17:19:29;;;;;;;2.80;1.87;;;;;15.10;99393.00;;;;10486487;28;20189;-81
2021/10/02 17:24:31;;;;;;;2.13;1.90;;;;;15.10;99366.00;;;;10468837;28;20185;-80
2021/10/02 17:29:33;;;;;;;3.37;2.37;;;;;15.10;99358.00;;;;10452192;28;20271;-81
2021/10/02 17:34:35;;;;;;;3.30;2.00;;;;;15.10;99334.00;;;;10463365;28;20996;-82
2021/10/02 17:39:37;;;;;;;2.67;1.47;;;;;15.10;99315.00;;;;10467565;28;20205;-82
2021/10/02 17:44:39;;;;;;;2.43;1.60;;;;;15.10;99309.00;;;;10460452;28;20194;-81
2021/10/02 17:49:41;;;;;;;2.57;1.60;;;;;15.10;99299.00;;;;10487842;28;20205;-82
2021/10/02 17:54:43;;;;;;;1.90;1.80;;;;;15.00;99288.00;;;;10467949;28;20197;-82
2021/10/02 17:59:45;;;;;;;2.83;1.70;;;;;15.00;99273.00;;;;10432810;28;20194;-82
2021/10/02 18:04:47;;;;;;;2.33;1.43;;;;;15.00;99268.00;;;;10473131;28;20648;-83
2021/10/02 18:09:49;;;;;;;2.60;1.87;;;;;15.00;99265.00;;;;10418363;28;21034;-82
2021/10/02 18:14:51;;;;;;;2.90;2.20;;;;;15.00;99190.00;;;;10464735;28;20581;-82
2021/10/02 18:19:53;;;;;;;3.60;2.00;;;;;15.00;99205.00;;;;10459010;28;20194;-81
2021/10/02 18:24:59;;;;;;;1.83;1.60;;;;;15.00;99201.00;;;;10476969;28;20195;-82
2021/10/02 18:30:01;;;;;;;2.87;1.40;;;;;15.00;99211.00;;;;10482758;28;20229;-81
2021/10/02 18:35:05;;;;;;;1.97;1.77;;;;;15.00;99221.00;;;;10446392;28;20227;-81
2021/10/02 18:40:09;;;;;;;2.80;1.70;;;;;15.10;99212.00;;;;10472681;28;20305;-80
2021/10/02 18:45:12;;;;;;;1.47;1.37;;;;;15.10;99207.00;;;;10439011;28;20248;-82
2021/10/02 18:50:16;;;;;;;3.40;1.47;;;;;15.20;99203.00;;;;10528965;28;20297;-83
2021/10/02 18:55:18;;;;;;;2.47;1.57;;;;;15.20;99198.00;;;;10492744;28;20278;-82
2021/10/02 19:00:22;;;;;;;2.27;1.50;;;;;15.20;99172.00;;;;10421649;28;20228;-80
2021/10/02 19:05:26;;;;;;;1.87;1.70;;;;;15.30;99163.00;;;;10472710;28;20277;-79
2021/10/02 19:10:28;;;;;;;2.37;1.57;;;;;15.30;99128.00;;;;10480083;28;20213;-80
2021/10/02 19:15:31;;;;;;;2.80;1.50;;;;;15.30;99139.00;;;;10464595;28;20235;-80
2021/10/02 19:20:33;;;;;;;4.27;1.80;;;;;15.40;99141.00;;;;10469798;28;20194;-80
2021/10/02 19:25:35;;;;;;;1.93;1.60;;;;;15.40;99102.00;;;;10443585;28;20194;-80
2021/10/02 19:30:37;;;;;;;2.33;1.73;;;;;15.50;99113.00;;;;10496177;28;20235;-80
2021/10/02 19:35:42;;;;;;;2.50;2.30;;;;;15.50;99090.00;;;;10478835;28;20705;-80
2021/10/02 19:40:44;;;;;;;2.20;1.43;;;;;15.60;99085.00;;;;10440446;28;20217;-81
2021/10/02 19:45:46;;;;;;;2.70;1.33;;;;;15.60;99085.00;;;;10474760;28;20224;-80
2021/10/02 19:50:58;;;;;;;3.22;1.50;;;;;15.70;99059.00;;;;10425180;28;20222;-80
2021/10/02 19:56:00;;;;;;;1.63;1.50;;;;;15.70;99063.00;;;;10459134;28;20189;-80
2021/10/02 20:01:02;;;;;;;1.98;1.33;;;;;15.70;99053.00;;;;10446119;28;20189;-80
2021/10/02 20:06:05;;;;;;;2.90;1.52;;;;;15.80;99039.00;;;;10451824;28;20194;-80
2021/10/02 20:11:07;;;;;;;1.48;1.30;;;;;15.80;99029.00;;;;10435862;28;20221;-81
2021/10/02 20:16:10;;;;;;;2.00;1.23;;;;;15.90;99032.00;;;;10452861;28;20197;-81
2021/10/02 20:21:13;;;;;;;2.47;1.30;;;;;16.00;99039.00;;;;10473806;28;20196;-80
2021/10/02 20:26:15;;;;;;;3.67;1.20;;;;;16.00;99056.00;;;;10443394;28;20648;-81
2021/10/02 20:31:17;;;;;;;1.63;1.13;;;;;15.90;99040.00;;;;10456433;28;20236;-82
2021/10/02 20:36:19;;;;;;;1.63;1.30;;;;;15.80;99035.00;;;;10462165;28;20225;-82
2021/10/02 20:41:23;;;;;;;2.63;1.45;;;;;15.70;99032.00;;;;10460292;28;20697;-82
2021/10/02 20:46:25;;;;;;;1.50;1.30;;;;;15.70;99027.00;;;;10461756;28;20198;-80
2021/10/02 20:51:27;;;;;;;1.20;1.10;;;;;15.70;99034.00;;;;10515737;28;20263;-82
2021/10/02 20:56:29;;;;;;;1.77;1.10;;;;;15.70;98983.00;;;;10485896;28;20247;-82
2021/10/02 21:01:33;;;;;;;1.88;1.00;;;;;15.70;99028.00;;;;10519879;28;20195;-81
2021/10/02 21:06:35;;;;;;;1.10;1.00;;;;;15.70;99016.00;;;;10421996;28;20244;-80
2021/10/02 21:11:41;;;;;;;2.83;1.27;;;;;15.70;99008.00;;;;10506317;28;20202;-81
2021/10/02 21:16:43;;;;;;;1.90;1.33;;;;;15.70;99004.00;;;;10459404;28;20201;-80
2021/10/02 21:21:45;;;;;;;1.38;1.13;;;;;15.70;98998.00;;;;10468230;28;20189;-81
2021/10/02 21:26:47;;;;;;;2.22;1.27;;;;;15.70;98998.00;;;;10483096;28;20251;-81
2021/10/02 21:31:51;;;;;;;2.70;1.20;;;;;15.80;99012.00;;;;10430791;28;20202;-81
2021/10/02 21:36:56;;;;;;;1.30;0.80;;;;;15.80;99003.00;;;;10467533;28;20189;-82
2021/10/02 21:41:58;;;;;;;1.40;1.05;;;;;15.80;99000.00;;;;10466869;28;20490;-80
2021/10/02 21:47:01;;;;;;;2.03;1.10;;;;;15.80;99003.00;;;;10481738;28;20692;-80
2021/10/02 21:52:04;;;;;;;1.13;1.00;;;;;15.80;99010.00;;;;10480038;28;20221;-79
2021/10/02 21:57:14;;;;;;;0.93;0.90;;;;;15.90;99010.00;;;;10447652;28;20232;-80
2021/10/02 22:02:16;;;;;;;1.25;1.20;;;;;15.90;99001.00;;;;10475048;28;20205;-80
2021/10/02 22:07:18;;;;;;;1.42;0.90;;;;;15.90;99002.00;;;;10465840;28;20194;-79
2021/10/02 22:12:20;;;;;;;2.55;1.30;;;;;15.90;99012.00;;;;10482533;28;20298;-80
2021/10/02 22:17:23;;;;;;;2.00;1.10;;;;;15.90;99016.00;;;;10457015;28;20202;-80
2021/10/02 22:22:25;;;;;;;1.63;1.10;;;;;16.00;99015.00;;;;10487818;28;20254;-80
2021/10/02 22:27:27;;;;;;;1.38;1.27;;;;;16.10;99007.00;;;;10468855;28;20185;-80
2021/10/02 22:32:29;;;;;;;1.30;1.20;;;;;16.10;99013.00;;;;10467216;28;20990;-80
2021/10/02 22:37:31;;;;;;;1.50;1.40;;;;;16.10;99018.00;;;;10468240;28;20559;-80
2021/10/02 22:42:33;;;;;;;2.00;1.52;;;;;16.20;99039.00;;;;10485061;28;20217;-80
2021/10/02 22:47:37;;;;;;;2.17;1.30;;;;;16.20;99029.00;;;;10485011;28;20189;-79
2021/10/02 22:52:43;;;;;;;1.42;1.30;;;;;16.30;99027.00;;;;10484647;28;20201;-79
2021/10/02 22:57:45;;;;;;;3.20;1.40;;;;;16.30;99025.00;;;;10445199;28;20228;-79
2021/10/02 23:02:47;;;;;;;1.42;1.33;;;;;16.30;99039.00;;;;10459590;28;20198;-79
2021/10/02 23:07:50;;;;;;;1.30;1.20;;;;;16.30;99031.00;;;;10483038;28;20654;-79
2021/10/02 23:12:52;;;;;;;2.58;1.60;;;;;16.30;99039.00;;;;10501385;28;20239;-80
2021/10/02 23:17:55;;;;;;;3.50;1.27;;;;;16.30;99028.00;;;;10467885;28;20186;-80
2021/10/02 23:22:59;;;;;;;1.45;1.23;;;;;16.30;99030.00;;;;10467812;28;20565;-81
2021/10/02 23:28:02;;;;;;;1.80;1.20;;;;;16.30;99035.00;;;;10466911;28;20208;-81
2021/10/02 23:33:05;;;;;;;2.63;1.02;;;;;16.30;99022.00;;;;10450837;28;20194;-81
2021/10/02 23:38:07;;;;;;;1.13;1.10;;;;;16.30;99011.00;;;;10450498;28;20915;-81
2021/10/02 23:43:09;;;;;;;1.38;1.10;;;;;16.30;99022.00;;;;10424464;28;20264;-81
2021/10/02 23:48:11;;;;;;;1.75;1.10;;;;;16.30;99003.00;;;;10520227;28;20217;-80
2021/10/02 23:53:15;;;;;;;1.02;1.00;;;;;16.30;99006.00;;;;10467415;28;20679;-82
2021/10/02 23:58:20;;;;;;;1.40;0.80;;;;;16.30;99000.00;;;;10490271;28;20193;-82
